Time;durP1;ratioP1;P1;durP2;ratioP2;P2;SDS_P1;SDS_P2;PMS_P1;PMS_P2;Temp;Humidity;BMP_temperature;BMP_pressure;BME280_temperature;BME280_humidity;BME280_pressure;Samples;Min_cycle;Max_cycle;Signal;HPM_P1;HPM_P2
2023/04/26 00:01:56;;;;;;;3.05;1.13;;;3.90;99.90;;;;;;5015412;28;20072;-81
2023/04/26 00:04:22;;;;;;;5.80;1.50;;;4.20;99.90;;;;;;5016298;28;20160;-81
2023/04/26 00:06:48;;;;;;;2.63;1.13;;;5.20;99.90;;;;;;5014986;28;20042;-80
2023/04/26 00:09:14;;;;;;;5.95;1.40;;;4.20;99.90;;;;;;4999156;28;20072;-81
2023/04/26 00:11:40;;;;;;;3.45;1.02;;;4.20;99.90;;;;;;5016122;28;20042;-81
2023/04/26 00:14:06;;;;;;;3.92;1.10;;;4.20;99.90;;;;;;5015177;28;20050;-81
2023/04/26 00:16:31;;;;;;;4.07;1.00;;;5.10;99.90;;;;;;4998710;28;20433;-82
2023/04/26 00:18:57;;;;;;;2.95;0.93;;;4.30;99.90;;;;;;5014991;28;20104;-82
2023/04/26 00:21:23;;;;;;;4.40;1.13;;;4.20;99.90;;;;;;5015797;28;20054;-81
2023/04/26 00:23:49;;;;;;;5.40;1.33;;;3.90;99.90;;;;;;5015878;28;20053;-81
2023/04/26 00:26:14;;;;;;;5.18;1.00;;;4.60;99.90;;;;;;5014955;28;20122;-81
2023/04/26 00:28:40;;;;;;;3.95;0.85;;;4.00;99.90;;;;;;5015263;28;20454;-81
2023/04/26 00:31:06;;;;;;;3.58;1.00;;;4.90;99.90;;;;;;5014691;28;20046;-81
2023/04/26 00:33:32;;;;;;;4.97;1.17;;;4.80;99.90;;;;;;5014959;28;20052;-81
2023/04/26 00:35:57;;;;;;;9.27;1.00;;;3.90;99.90;;;;;;5015674;28;20048;-81
2023/04/26 00:38:23;;;;;;;6.50;0.93;;;4.10;99.90;;;;;;4999177;28;20488;-81
2023/04/26 00:40:49;;;;;;;3.35;0.90;;;4.20;99.90;;;;;;4999174;28;20387;-81
2023/04/26 00:43:14;;;;;;;10.95;1.50;;;4.80;99.90;;;;;;5015502;28;20049;-80
2023/04/26 00:45:40;;;;;;;5.32;1.20;;;4.80;99.90;;;;;;5014146;28;20066;-81
2023/04/26 00:48:06;;;;;;;3.65;0.85;;;4.20;99.90;;;;;;5013413;28;20058;-81
2023/04/26 00:50:32;;;;;;;5.18;0.90;;;4.00;99.90;;;;;;5016032;28;20054;-81
2023/04/26 00:53:00;;;;;;;4.70;0.85;;;4.40;99.90;;;;;;5014415;28;20077;-80
2023/04/26 00:55:26;;;;;;;6.35;1.30;;;4.40;99.90;;;;;;5015036;28;20548;-81
2023/04/26 00:57:52;;;;;;;3.90;1.10;;;4.30;99.90;;;;;;5015304;28;20046;-80
2023/04/26 01:00:18;;;;;;;4.35;1.25;;;4.50;99.90;;;;;;5015196;28;20046;-81
2023/04/26 01:02:44;;;;;;;4.97;1.00;;;4.90;99.90;;;;;;4998193;28;20056;-83
2023/04/26 01:05:10;;;;;;;5.50;1.42;;;4.20;99.90;;;;;;5014959;28;20053;-81
2023/04/26 01:07:37;;;;;;;5.25;0.90;;;4.30;99.90;;;;;;5015190;28;20038;-81
2023/04/26 01:10:04;;;;;;;4.35;1.05;;;4.30;99.90;;;;;;4998044;28;20478;-82
2023/04/26 01:12:31;;;;;;;6.78;1.27;;;4.20;99.90;;;;;;5015097;28;20121;-82
2023/04/26 01:14:59;;;;;;;6.57;0.90;;;4.20;99.90;;;;;;4998683;28;20129;-80
2023/04/26 01:17:25;;;;;;;4.30;0.82;;;4.50;99.90;;;;;;5014913;28;20046;-82
2023/04/26 01:19:51;;;;;;;5.78;0.90;;;4.50;99.90;;;;;;5015932;28;20116;-82
2023/04/26 01:22:17;;;;;;;1.63;0.70;;;4.30;99.90;;;;;;5013879;28;20088;-83
2023/04/26 01:24:45;;;;;;;3.55;0.80;;;4.70;99.90;;;;;;4997715;28;20089;-82
2023/04/26 01:27:11;;;;;;;7.82;0.90;;;5.40;99.90;;;;;;5014442;28;20502;-82
2023/04/26 01:29:37;;;;;;;6.35;0.80;;;5.20;99.90;;;;;;5014731;28;20038;-82
2023/04/26 01:32:03;;;;;;;4.00;0.77;;;4.80;99.90;;;;;;5014649;28;20041;-81
2023/04/26 01:34:29;;;;;;;5.20;0.80;;;4.40;99.90;;;;;;5014656;28;20053;-80
2023/04/26 01:36:55;;;;;;;3.83;0.80;;;5.00;99.90;;;;;;5013528;28;20067;-85
2023/04/26 01:39:21;;;;;;;3.55;0.73;;;4.70;99.90;;;;;;4997308;28;20402;-82
2023/04/26 01:41:47;;;;;;;3.78;0.90;;;4.50;99.90;;;;;;5013640;28;20060;-81
2023/04/26 01:44:12;;;;;;;4.03;1.00;;;4.30;99.90;;;;;;4997938;28;20056;-81
2023/04/26 01:46:38;;;;;;;3.75;0.85;;;5.00;99.90;;;;;;5014654;28;20442;-82
2023/04/26 01:49:04;;;;;;;4.97;1.38;;;4.70;99.90;;;;;;5014026;28;20058;-80
2023/04/26 01:51:30;;;;;;;6.20;1.08;;;4.40;99.90;;;;;;5015105;28;20060;-81
2023/04/26 01:53:55;;;;;;;4.93;0.90;;;4.10;99.90;;;;;;5014369;28;20038;-82
2023/04/26 01:56:23;;;;;;;4.50;1.00;;;4.40;99.90;;;;;;5015105;28;20060;-81
2023/04/26 01:58:49;;;;;;;4.75;1.40;;;4.80;99.90;;;;;;5014230;28;20046;-81
2023/04/26 02:01:15;;;;;;;5.05;1.30;;;4.40;99.90;;;;;;5014183;28;20044;-81
2023/04/26 02:03:40;;;;;;;8.27;1.02;;;3.90;99.90;;;;;;5013970;28;20136;-80
2023/04/26 02:06:06;;;;;;;5.35;1.30;;;4.40;99.90;;;;;;5012879;28;20133;-78
2023/04/26 02:08:32;;;;;;;4.30;1.10;;;4.10;99.90;;;;;;5012866;28;20038;-80
2023/04/26 02:10:58;;;;;;;2.78;0.88;;;4.90;99.90;;;;;;5014402;28;20390;-80
2023/04/26 02:13:24;;;;;;;3.13;0.75;;;4.70;99.90;;;;;;5014704;28;20042;-86
2023/04/26 02:15:50;;;;;;;3.38;1.00;;;4.00;99.90;;;;;;5013451;28;20132;-80
2023/04/26 02:18:20;;;;;;;4.72;1.00;;;4.10;99.90;;;;;;4995483;28;20545;-76
2023/04/26 02:20:46;;;;;;;5.57;1.10;;;4.60;99.90;;;;;;5013952;28;20045;-75
2023/04/26 02:23:12;;;;;;;3.08;0.90;;;4.60;99.90;;;;;;4996533;28;20497;-76
2023/04/26 02:25:38;;;;;;;5.80;1.23;;;4.50;99.90;;;;;;5014405;28;20050;-77
2023/04/26 02:28:05;;;;;;;6.60;1.00;;;4.60;99.90;;;;;;5014250;28;20046;-76
2023/04/26 02:30:31;;;;;;;3.55;0.90;;;4.80;99.90;;;;;;5014369;28;20121;-76
2023/04/26 02:32:57;;;;;;;3.50;0.98;;;4.90;99.90;;;;;;5013666;28;20081;-77
2023/04/26 02:35:23;;;;;;;3.47;0.90;;;4.60;99.90;;;;;;5013747;28;20093;-76
2023/04/26 02:37:51;;;;;;;3.47;1.15;;;4.40;99.90;;;;;;5013740;28;20430;-77
2023/04/26 02:40:17;;;;;;;5.00;1.00;;;4.20;99.90;;;;;;5013808;28;20054;-77
2023/04/26 02:42:43;;;;;;;2.85;1.27;;;4.20;99.90;;;;;;5014306;28;20385;-77
2023/04/26 02:45:09;;;;;;;7.57;1.13;;;4.20;99.90;;;;;;5013798;28;20048;-76
2023/04/26 02:47:35;;;;;;;4.97;1.00;;;4.20;99.90;;;;;;5012230;28;20048;-76
2023/04/26 02:50:06;;;;;;;3.22;0.85;;;4.60;99.90;;;;;;5012646;28;20061;-76
2023/04/26 02:52:32;;;;;;;3.60;0.90;;;4.40;99.90;;;;;;5013219;28;20455;-76
2023/04/26 02:54:58;;;;;;;5.05;1.20;;;5.30;99.90;;;;;;5013616;28;20100;-77
2023/04/26 02:57:24;;;;;;;5.25;1.20;;;3.90;99.90;;;;;;5013584;28;20445;-76
2023/04/26 02:59:50;;;;;;;7.55;1.42;;;4.40;99.90;;;;;;5013358;28;20417;-76
2023/04/26 03:02:15;;;;;;;6.25;1.10;;;3.80;99.90;;;;;;5013332;28;20129;-76
2023/04/26 03:04:41;;;;;;;3.20;1.05;;;4.00;99.90;;;;;;5013515;28;20049;-76
2023/04/26 03:07:07;;;;;;;4.05;0.90;;;4.40;99.90;;;;;;4996215;28;20045;-76
2023/04/26 03:09:33;;;;;;;3.25;1.33;;;4.00;99.90;;;;;;5012318;28;20609;-77
2023/04/26 03:11:59;;;;;;;5.50;1.65;;;4.10;99.90;;;;;;4996205;28;20049;-76
2023/04/26 03:14:25;;;;;;;4.00;1.35;;;4.00;99.90;;;;;;5013448;28;20176;-76
2023/04/26 03:16:52;;;;;;;6.03;1.85;;;3.80;99.90;;;;;;5013819;28;20041;-76
2023/04/26 03:19:17;;;;;;;4.55;1.13;;;4.00;99.90;;;;;;5012402;28;20052;-76
2023/04/26 03:21:43;;;;;;;6.07;1.33;;;4.00;99.90;;;;;;5012880;28;20133;-77
2023/04/26 03:24:10;;;;;;;4.28;1.30;;;3.80;99.90;;;;;;5013426;28;20041;-76
2023/04/26 03:26:36;;;;;;;2.45;1.10;;;4.10;99.90;;;;;;5012398;28;20045;-77
2023/04/26 03:29:02;;;;;;;5.15;1.10;;;3.60;99.90;;;;;;5013510;28;20050;-77
2023/04/26 03:31:28;;;;;;;2.47;0.93;;;3.70;99.90;;;;;;5017719;28;20369;-77
2023/04/26 03:33:53;;;;;;;2.72;1.05;;;3.50;99.90;;;;;;5015871;28;20053;-77
2023/04/26 03:36:19;;;;;;;3.67;1.10;;;3.60;99.90;;;;;;5015503;28;20117;-77
2023/04/26 03:38:45;;;;;;;2.17;1.10;;;3.50;99.90;;;;;;5016780;28;20045;-77
2023/04/26 03:41:11;;;;;;;3.10;1.15;;;4.30;99.90;;;;;;5016669;28;20136;-77
2023/04/26 03:43:37;;;;;;;3.95;1.30;;;3.20;99.90;;;;;;5016692;28;20128;-77
2023/04/26 03:46:03;;;;;;;3.95;1.20;;;3.40;99.90;;;;;;5016645;28;20147;-78
2023/04/26 03:48:29;;;;;;;5.57;1.10;;;3.30;99.90;;;;;;5015150;28;20069;-78
2023/04/26 03:50:55;;;;;;;5.90;1.42;;;3.60;99.90;;;;;;5017040;28;20050;-78
2023/04/26 03:53:21;;;;;;;5.78;1.08;;;3.50;99.90;;;;;;5015400;28;20367;-78
2023/04/26 03:55:47;;;;;;;3.35;0.90;;;3.60;99.90;;;;;;5015307;28;20124;-77
2023/04/26 03:58:13;;;;;;;5.10;1.00;;;3.70;99.90;;;;;;4999967;28;20455;-78
2023/04/26 04:00:42;;;;;;;8.02;1.58;;;3.70;99.90;;;;;;5015120;28;20038;-78
2023/04/26 04:03:08;;;;;;;5.40;1.33;;;3.50;99.90;;;;;;5016897;28;20092;-79
2023/04/26 04:05:34;;;;;;;5.80;1.45;;;3.90;99.90;;;;;;5015057;28;20083;-79
2023/04/26 04:08:00;;;;;;;3.75;0.93;;;4.30;99.90;;;;;;5016155;28;20045;-79
2023/04/26 04:10:26;;;;;;;3.55;0.85;;;4.00;99.90;;;;;;5015297;28;20045;-78
2023/04/26 04:12:52;;;;;;;4.05;1.10;;;4.20;99.90;;;;;;4998896;28;20161;-79
2023/04/26 04:15:19;;;;;;;4.28;0.70;;;3.90;99.90;;;;;;5016076;28;20125;-79
2023/04/26 04:17:45;;;;;;;4.50;1.17;;;4.20;99.90;;;;;;5014823;28;20046;-80
2023/04/26 04:20:12;;;;;;;2.28;0.90;;;4.40;99.90;;;;;;4999501;28;20056;-80
2023/04/26 04:22:40;;;;;;;4.72;0.98;;;3.90;99.90;;;;;;5014930;28;20042;-80
2023/04/26 04:25:09;;;;;;;3.88;1.00;;;4.20;99.90;;;;;;5015863;28;20088;-79
2023/04/26 04:27:36;;;;;;;3.13;0.95;;;4.10;99.90;;;;;;5015752;28;20104;-79
2023/04/26 04:30:08;;;;;;;2.38;0.80;;;4.30;99.90;;;;;;5015782;28;20116;-79
2023/04/26 04:32:34;;;;;;;3.92;1.00;;;3.90;99.90;;;;;;5016300;28;20049;-79
2023/04/26 04:35:00;;;;;;;2.42;0.80;;;4.30;99.90;;;;;;5014580;28;20041;-79
2023/04/26 04:37:27;;;;;;;3.30;0.80;;;4.10;99.90;;;;;;5015729;28;20096;-79
2023/04/26 04:39:53;;;;;;;2.53;1.10;;;4.00;99.90;;;;;;5015518;28;20050;-79
2023/04/26 04:42:20;;;;;;;3.05;0.82;;;4.40;99.90;;;;;;4997268;28;20494;-79
2023/04/26 04:44:46;;;;;;;2.47;0.90;;;4.30;99.90;;;;;;5014540;28;20054;-79
2023/04/26 04:47:12;;;;;;;5.43;1.45;;;4.30;99.90;;;;;;5015265;28;20482;-80
2023/04/26 04:49:38;;;;;;;2.10;0.73;;;4.40;99.90;;;;;;5015230;28;20564;-79
2023/04/26 04:52:05;;;;;;;2.72;1.00;;;4.20;99.90;;;;;;5014169;28;20054;-79
2023/04/26 04:54:31;;;;;;;5.20;1.00;;;4.50;99.90;;;;;;5015809;28;20049;-79
2023/04/26 04:56:56;;;;;;;2.40;0.80;;;4.20;99.90;;;;;;5016696;28;20053;-80
2023/04/26 04:59:22;;;;;;;2.08;0.95;;;4.40;99.90;;;;;;5015982;28;20046;-80
2023/04/26 05:01:49;;;;;;;4.82;1.10;;;4.30;99.90;;;;;;5015223;28;20053;-80
2023/04/26 05:04:15;;;;;;;2.67;0.98;;;4.30;99.90;;;;;;5015209;28;20106;-80
2023/04/26 05:06:40;;;;;;;3.30;0.90;;;4.50;99.90;;;;;;4997630;28;20045;-80
2023/04/26 05:09:07;;;;;;;2.65;0.80;;;4.30;99.90;;;;;;4981353;28;20042;-81
2023/04/26 05:11:33;;;;;;;2.75;0.93;;;4.60;99.90;;;;;;5015010;28;20046;-79
2023/04/26 05:13:58;;;;;;;5.80;0.88;;;4.20;99.90;;;;;;5014938;28;20046;-80
2023/04/26 05:16:24;;;;;;;1.55;0.80;;;5.20;99.90;;;;;;5015490;28;20149;-81
2023/04/26 05:18:50;;;;;;;3.47;0.98;;;4.60;99.90;;;;;;4998021;28;20429;-81
2023/04/26 05:21:16;;;;;;;1.98;0.70;;;4.50;99.90;;;;;;4997199;28;20042;-82
2023/04/26 05:23:42;;;;;;;4.65;1.00;;;4.50;99.90;;;;;;5015317;28;20054;-80
2023/04/26 05:26:12;;;;;;;4.20;0.70;;;5.00;99.90;;;;;;5014044;28;20046;-82
2023/04/26 05:28:37;;;;;;;5.68;1.00;;;5.00;99.90;;;;;;5014380;28;20521;-81
2023/04/26 05:31:03;;;;;;;4.63;0.98;;;5.20;99.90;;;;;;5014666;28;20096;-82
2023/04/26 05:33:29;;;;;;;1.42;0.60;;;4.80;99.90;;;;;;5015382;28;20045;-82
2023/04/26 05:35:56;;;;;;;1.95;0.73;;;4.90;99.90;;;;;;5013650;28;20104;-83
2023/04/26 05:38:23;;;;;;;1.63;0.68;;;5.00;99.90;;;;;;5013429;28;20053;-83
2023/04/26 05:40:48;;;;;;;2.45;0.77;;;5.00;99.90;;;;;;5013513;28;20040;-85
2023/04/26 05:43:14;;;;;;;1.15;0.90;;;4.90;99.90;;;;;;5014447;28;20041;-84
2023/04/26 05:45:53;;;;;;;3.45;0.70;;;4.90;99.90;;;;;;5013338;28;20046;-87
2023/04/26 05:48:23;;;;;;;2.30;0.80;;;5.30;99.90;;;;;;5013033;28;20050;-85
2023/04/26 05:50:50;;;;;;;5.65;0.85;;;5.10;99.90;;;;;;5014367;28;20053;-83
2023/04/26 05:53:16;;;;;;;3.55;0.80;;;5.70;99.90;;;;;;5012828;28;20054;-83
2023/04/26 05:55:42;;;;;;;2.33;0.88;;;5.10;99.90;;;;;;5013129;28;20046;-85
2023/04/26 05:58:08;;;;;;;1.70;0.80;;;5.40;99.90;;;;;;5013298;28;20053;-86
2023/04/26 06:00:35;;;;;;;3.03;0.85;;;5.50;99.90;;;;;;5014425;28;20076;-87
2023/04/26 06:03:00;;;;;;;8.20;0.90;;;5.30;99.90;;;;;;5014688;28;20050;-86
2023/04/26 06:05:26;;;;;;;4.00;1.02;;;5.20;99.90;;;;;;5014120;28;20050;-87
2023/04/26 06:07:52;;;;;;;5.07;0.80;;;6.00;99.90;;;;;;5012840;28;20054;-87
2023/04/26 06:10:18;;;;;;;3.97;0.88;;;5.40;99.90;;;;;;5014099;28;20061;-85
2023/04/26 06:12:44;;;;;;;2.83;0.85;;;5.50;99.90;;;;;;5014067;28;20430;-89
2023/04/26 06:15:10;;;;;;;1.67;0.80;;;5.30;99.90;;;;;;5014039;28;20092;-83
2023/04/26 06:17:36;;;;;;;1.85;0.77;;;5.30;99.90;;;;;;5013886;28;20049;-89
2023/04/26 06:20:02;;;;;;;3.03;0.85;;;6.00;99.90;;;;;;5012918;28;20057;-83
2023/04/26 06:22:28;;;;;;;5.60;0.90;;;5.30;99.90;;;;;;5014684;28;20046;-89
2023/04/26 06:24:53;;;;;;;4.50;0.90;;;5.40;99.90;;;;;;5014356;28;20536;-89
2023/04/26 06:27:19;;;;;;;2.65;0.90;;;5.50;99.90;;;;;;5013573;28;20049;-89
2023/04/26 06:29:45;;;;;;;1.80;0.85;;;5.40;99.90;;;;;;5013673;28;20508;-88
2023/04/26 06:32:11;;;;;;;3.45;1.00;;;5.80;99.90;;;;;;4996468;28;20136;-87
2023/04/26 06:34:37;;;;;;;4.90;0.70;;;5.90;99.90;;;;;;5013598;28;20041;-89
2023/04/26 06:37:03;;;;;;;4.25;1.13;;;5.70;99.90;;;;;;4996517;28;20510;-84
2023/04/26 06:39:29;;;;;;;1.95;0.70;;;6.00;99.90;;;;;;5014529;28;20402;-90
2023/04/26 06:41:55;;;;;;;3.40;1.02;;;6.00;99.90;;;;;;5013799;28;20050;-85
2023/04/26 06:44:21;;;;;;;3.20;0.90;;;6.00;99.90;;;;;;5013423;28;20057;-84
2023/04/26 06:46:48;;;;;;;4.93;0.98;;;5.90;99.90;;;;;;5013831;28;20046;-83
2023/04/26 06:49:14;;;;;;;4.47;1.10;;;6.00;99.90;;;;;;5012396;28;20133;-84
2023/04/26 06:51:40;;;;;;;3.97;0.95;;;5.50;99.90;;;;;;5013627;28;20554;-86
2023/04/26 06:54:05;;;;;;;3.55;1.42;;;5.50;99.90;;;;;;5013624;28;20052;-88
2023/04/26 06:56:31;;;;;;;2.85;0.90;;;5.60;99.90;;;;;;5012609;28;20413;-89
2023/04/26 06:59:06;;;;;;;2.83;1.00;;;6.10;99.90;;;;;;5013453;28;20104;-87
2023/04/26 07:01:33;;;;;;;2.28;0.90;;;5.70;99.90;;;;;;5013454;28;20470;-88
2023/04/26 07:04:03;;;;;;;2.67;1.00;;;5.60;99.90;;;;;;5014310;28;20092;-86
2023/04/26 07:06:32;;;;;;;2.25;1.10;;;5.60;99.90;;;;;;5015840;28;20486;-88
2023/04/26 07:08:59;;;;;;;1.90;0.93;;;5.90;99.90;;;;;;5016148;28;20042;-89
2023/04/26 07:11:25;;;;;;;4.47;0.88;;;5.70;99.90;;;;;;5015821;28;20437;-85
2023/04/26 07:13:51;;;;;;;6.65;0.90;;;5.60;99.90;;;;;;4999672;28;20058;-89
2023/04/26 07:16:17;;;;;;;3.63;0.90;;;5.40;99.90;;;;;;5018754;28;20056;-90
2023/04/26 07:18:42;;;;;;;2.40;1.00;;;5.60;99.90;;;;;;5019179;28;20371;-85
2023/04/26 07:21:08;;;;;;;3.90;1.00;;;5.30;99.90;;;;;;5015399;28;20049;-86
2023/04/26 07:23:35;;;;;;;2.35;1.00;;;6.30;99.90;;;;;;5015384;28;20046;-87
2023/04/26 07:26:03;;;;;;;2.95;0.90;;;5.50;99.90;;;;;;5016156;28;20441;-83
2023/04/26 07:28:29;;;;;;;4.32;1.27;;;5.40;99.90;;;;;;4999382;28;20057;-87
2023/04/26 07:30:55;;;;;;;5.30;1.48;;;5.60;99.90;;;;;;5016377;28;20041;-86
2023/04/26 07:33:20;;;;;;;3.47;1.10;;;5.70;99.90;;;;;;5015427;28;20049;-86
2023/04/26 07:35:57;;;;;;;4.07;1.05;;;6.30;99.90;;;;;;5015397;28;20457;-84
2023/04/26 07:38:23;;;;;;;3.15;1.05;;;5.90;99.90;;;;;;5016143;28;20056;-82
2023/04/26 07:40:49;;;;;;;3.20;1.30;;;6.10;99.90;;;;;;5019461;28;20050;-89
2023/04/26 07:43:15;;;;;;;5.95;1.20;;;6.40;99.90;;;;;;5018553;28;20053;-84
2023/04/26 07:45:41;;;;;;;4.15;1.00;;;6.60;99.90;;;;;;5015166;28;20050;-80
2023/04/26 07:48:07;;;;;;;1.80;1.00;;;6.80;99.90;;;;;;5016237;28;20092;-82
2023/04/26 07:50:33;;;;;;;2.72;0.88;;;6.60;99.90;;;;;;5015638;28;20050;-80
2023/04/26 07:52:59;;;;;;;5.13;1.15;;;6.70;99.90;;;;;;5015740;28;20159;-82
2023/04/26 07:55:25;;;;;;;3.70;0.90;;;6.80;99.90;;;;;;4998691;28;20038;-82
2023/04/26 07:57:51;;;;;;;4.40;0.90;;;6.90;99.90;;;;;;4998703;28;20077;-86
2023/04/26 08:00:17;;;;;;;3.53;1.00;;;6.90;99.90;;;;;;5016510;28;20092;-84
2023/04/26 08:02:46;;;;;;;6.75;1.13;;;7.10;99.90;;;;;;5016085;28;20056;-81
2023/04/26 08:05:13;;;;;;;4.22;0.90;;;7.10;99.90;;;;;;5015932;28;20509;-81
2023/04/26 08:07:39;;;;;;;3.05;0.90;;;7.10;99.90;;;;;;5015819;28;20046;-80
2023/04/26 08:10:06;;;;;;;2.63;0.80;;;7.30;99.90;;;;;;5014887;28;20080;-84
2023/04/26 08:12:33;;;;;;;5.18;1.05;;;7.50;99.90;;;;;;4998074;28;20530;-83
2023/04/26 08:15:06;;;;;;;5.68;1.10;;;7.40;99.90;;;;;;5014668;28;20117;-81
2023/04/26 08:17:32;;;;;;;3.45;0.88;;;7.40;99.90;;;;;;4999107;28;20061;-82
2023/04/26 08:19:58;;;;;;;3.67;1.20;;;7.60;99.90;;;;;;5015636;28;20049;-80
2023/04/26 08:22:24;;;;;;;2.92;0.90;;;7.80;99.90;;;;;;5014459;28;20057;-80
2023/04/26 08:24:54;;;;;;;5.00;1.10;;;7.50;99.90;;;;;;5015613;28;20053;-81
2023/04/26 08:27:20;;;;;;;7.95;1.38;;;7.50;99.90;;;;;;5015174;28;20128;-86
2023/04/26 08:29:46;;;;;;;3.08;1.20;;;7.90;99.90;;;;;;5016212;28;20136;-87
2023/04/26 08:32:12;;;;;;;3.70;0.80;;;7.80;99.90;;;;;;5016422;28;20513;-85
2023/04/26 08:34:38;;;;;;;4.57;0.90;;;7.60;99.90;;;;;;5016469;28;20374;-86
2023/04/26 08:37:05;;;;;;;5.22;1.35;;;7.80;99.90;;;;;;5015771;28;20045;-81
2023/04/26 08:39:32;;;;;;;2.92;1.38;;;8.10;99.90;;;;;;5015489;28;20046;-82
2023/04/26 08:42:07;;;;;;;3.63;0.90;;;7.90;99.90;;;;;;5014650;28;20053;-87
2023/04/26 08:44:37;;;;;;;4.35;0.90;;;7.90;99.90;;;;;;5014477;28;20512;-86
2023/04/26 08:47:07;;;;;;;3.75;1.27;;;7.90;99.90;;;;;;5015026;28;20061;-87
2023/04/26 08:49:41;;;;;;;4.65;1.08;;;8.30;99.90;;;;;;5014815;28;20077;-82
2023/04/26 08:52:15;;;;;;;4.22;1.10;;;7.90;99.90;;;;;;5015770;28;20108;-83
2023/04/26 08:54:41;;;;;;;2.78;1.10;;;8.50;99.90;;;;;;5014021;28;20058;-84
2023/04/26 08:57:08;;;;;;;3.20;1.10;;;7.90;99.90;;;;;;5015002;28;20052;-83
2023/04/26 08:59:38;;;;;;;4.07;1.00;;;7.90;99.90;;;;;;5014575;28;20054;-85
2023/04/26 09:02:08;;;;;;;1.52;0.70;;;7.90;99.90;;;;;;5014906;28;20049;-83
2023/04/26 09:04:34;;;;;;;5.78;0.93;;;8.00;99.90;;;;;;5014993;28;20046;-86
2023/04/26 09:07:02;;;;;;;2.83;1.20;;;8.10;99.90;;;;;;5014778;28;20085;-80
2023/04/26 09:09:31;;;;;;;2.67;0.60;;;8.20;99.90;;;;;;5013375;28;20092;-86
2023/04/26 09:12:00;;;;;;;3.65;0.70;;;8.20;99.90;;;;;;5015458;28;20116;-86
2023/04/26 09:14:26;;;;;;;5.28;0.65;;;8.10;99.90;;;;;;5015570;28;20045;-88
2023/04/26 09:16:53;;;;;;;4.50;0.60;;;7.90;99.90;;;;;;5012683;28;20437;-86
2023/04/26 09:19:36;;;;;;;1.25;0.70;;;7.70;99.90;;;;;;5013780;28;20049;-86
2023/04/26 09:22:02;;;;;;;2.55;0.50;;;7.60;99.90;;;;;;5014221;28;20597;-85
2023/04/26 09:24:28;;;;;;;2.25;0.70;;;7.80;99.90;;;;;;4996772;28;20474;-85
2023/04/26 09:27:03;;;;;;;3.78;0.52;;;7.40;99.90;;;;;;5012895;28;20398;-86
2023/04/26 09:29:28;;;;;;;1.77;0.50;;;7.40;99.90;;;;;;4996803;28;20060;-87
2023/04/26 09:31:54;;;;;;;1.83;0.50;;;7.40;99.90;;;;;;4997749;28;20129;-87
2023/04/26 09:34:20;;;;;;;3.70;0.80;;;7.50;99.90;;;;;;5014363;28;20124;-86
2023/04/26 09:36:56;;;;;;;4.35;1.00;;;7.50;99.90;;;;;;5014330;28;20054;-85
2023/04/26 09:39:38;;;;;;;4.10;0.70;;;7.40;99.90;;;;;;5015092;28;20049;-86
2023/04/26 09:42:05;;;;;;;4.70;0.70;;;7.40;99.90;;;;;;5013147;28;20053;-86
2023/04/26 09:44:31;;;;;;;5.30;0.68;;;7.40;99.90;;;;;;5014121;28;20065;-86
2023/04/26 09:47:08;;;;;;;2.35;0.52;;;7.60;99.90;;;;;;5014057;28;20398;-85
2023/04/26 09:49:49;;;;;;;2.78;0.63;;;7.70;99.90;;;;;;5012263;28;20123;-85
2023/04/26 09:52:15;;;;;;;3.33;0.65;;;7.70;99.90;;;;;;5013729;28;20050;-87
2023/04/26 09:54:48;;;;;;;4.55;0.50;;;8.00;99.90;;;;;;4996497;28;20053;-85
2023/04/26 09:57:16;;;;;;;3.65;0.57;;;7.80;99.90;;;;;;5013866;28;20081;-87
2023/04/26 09:59:50;;;;;;;1.85;0.80;;;8.10;99.90;;;;;;5013944;28;20132;-88
2023/04/26 10:02:24;;;;;;;4.40;0.60;;;7.90;99.90;;;;;;5014034;28;20045;-86
2023/04/26 10:04:55;;;;;;;4.20;0.50;;;8.00;99.90;;;;;;4997283;28;20567;-86
2023/04/26 10:07:23;;;;;;;4.57;0.63;;;8.10;99.90;;;;;;5013558;28;20505;-86
2023/04/26 10:09:50;;;;;;;2.08;0.60;;;7.60;99.90;;;;;;5012855;28;20084;-86
2023/04/26 10:12:18;;;;;;;3.67;0.57;;;8.30;99.90;;;;;;5013734;28;20088;-84
2023/04/26 10:14:45;;;;;;;2.97;0.70;;;8.30;99.90;;;;;;5013495;28;20103;-86
2023/04/26 10:17:11;;;;;;;2.60;0.80;;;8.30;99.90;;;;;;5013603;28;20046;-83
2023/04/26 10:19:40;;;;;;;5.18;0.60;;;8.30;99.90;;;;;;5012570;28;20144;-85
2023/04/26 10:22:27;;;;;;;3.80;0.50;;;8.30;99.90;;;;;;5013652;28;20183;-85
2023/04/26 10:24:54;;;;;;;4.28;0.55;;;8.60;99.90;;;;;;5014494;28;20058;-84
2023/04/26 10:27:42;;;;;;;3.33;0.75;;;8.30;99.90;;;;;;5014189;28;20053;-83
2023/04/26 10:30:08;;;;;;;2.20;0.50;;;8.40;99.90;;;;;;5014293;28;20100;-84
2023/04/26 10:32:54;;;;;;;1.55;0.52;;;8.50;99.90;;;;;;5013869;28;20045;-86
2023/04/26 10:35:21;;;;;;;2.15;0.77;;;8.50;99.90;;;;;;5014366;28;20069;-85
2023/04/26 10:37:59;;;;;;;4.70;0.65;;;8.60;99.90;;;;;;5013780;28;20053;-87
2023/04/26 10:40:39;;;;;;;1.92;0.50;;;8.60;99.90;;;;;;5017104;28;20061;-87
2023/04/26 10:43:07;;;;;;;3.38;0.60;;;8.70;99.90;;;;;;5018790;28;20061;-84
2023/04/26 10:45:33;;;;;;;2.70;0.90;;;8.70;99.90;;;;;;5017893;28;20092;-85
2023/04/26 10:48:27;;;;;;;3.63;1.00;;;8.70;99.90;;;;;;5016763;28;20050;-88
2023/04/26 10:53:25;;;;;;;3.70;0.93;;;8.60;99.90;;;;;;4984315;28;19922;-85
2023/04/26 10:55:51;;;;;;;5.88;1.30;;;8.60;99.90;;;;;;4981410;28;20046;-87
2023/04/26 10:58:33;;;;;;;5.25;0.98;;;8.50;99.90;;;;;;4978694;28;20078;-88
2023/04/26 11:01:07;;;;;;;2.78;1.15;;;8.50;99.90;;;;;;4961921;28;20055;-89
2023/04/26 11:03:33;;;;;;;7.95;1.10;;;8.50;99.90;;;;;;4978597;28;20046;-89
2023/04/26 11:05:59;;;;;;;2.53;0.82;;;8.70;99.90;;;;;;4978342;28;20086;-88
2023/04/26 11:08:27;;;;;;;3.28;0.70;;;8.50;99.90;;;;;;4977389;28;20085;-89
2023/04/26 11:11:01;;;;;;;3.55;0.85;;;8.60;99.90;;;;;;4978427;28;20058;-87
2023/04/26 11:13:30;;;;;;;3.55;0.88;;;8.70;99.90;;;;;;4979201;28;20046;-87
2023/04/26 11:16:02;;;;;;;6.13;1.65;;;8.70;99.90;;;;;;4977186;28;20047;-78
2023/04/26 11:18:29;;;;;;;3.10;1.05;;;8.70;99.90;;;;;;4978475;28;20070;-84
2023/04/26 11:20:56;;;;;;;1.92;0.70;;;8.80;99.90;;;;;;4978426;28;20050;-81
2023/04/26 11:23:23;;;;;;;3.65;1.00;;;8.80;99.90;;;;;;4979461;28;20053;-82
2023/04/26 11:25:48;;;;;;;3.30;0.80;;;8.90;99.90;;;;;;4980313;28;20208;-81
2023/04/26 11:28:15;;;;;;;2.25;0.60;;;9.00;99.90;;;;;;4980848;28;20130;-84
2023/04/26 11:30:42;;;;;;;1.85;0.35;;;8.90;99.90;;;;;;4963423;28;20148;-83
2023/04/26 11:33:18;;;;;;;2.78;0.40;;;8.90;99.90;;;;;;4978037;28;20047;-82
2023/04/26 11:35:49;;;;;;;3.97;0.60;;;8.90;99.90;;;;;;4978800;28;20109;-83
2023/04/26 11:38:14;;;;;;;2.85;0.60;;;8.80;99.90;;;;;;4977829;28;20148;-78
2023/04/26 11:40:40;;;;;;;3.42;0.60;;;8.70;99.90;;;;;;4978128;28;20082;-84
2023/04/26 11:43:07;;;;;;;3.20;0.70;;;8.80;99.90;;;;;;4977897;28;20047;-82
2023/04/26 11:45:35;;;;;;;6.28;0.98;;;8.70;99.90;;;;;;4976780;28;20046;-85
2023/04/26 11:48:02;;;;;;;2.60;0.50;;;8.50;99.90;;;;;;4977589;28;20042;-86
2023/04/26 11:50:31;;;;;;;3.20;0.68;;;8.40;99.90;;;;;;4995528;28;20060;-84
2023/04/26 11:52:59;;;;;;;1.95;0.52;;;8.70;99.90;;;;;;5015734;28;20042;-86
2023/04/26 11:55:33;;;;;;;2.55;0.50;;;8.20;99.90;;;;;;4999139;28;20045;-85
2023/04/26 11:57:59;;;;;;;3.10;0.60;;;8.10;99.90;;;;;;5015343;28;20054;-85
2023/04/26 12:00:26;;;;;;;1.80;0.60;;;8.00;99.90;;;;;;5016381;28;20378;-85
2023/04/26 12:02:52;;;;;;;3.33;0.55;;;8.00;99.90;;;;;;5017146;28;20089;-86
2023/04/26 12:05:26;;;;;;;1.85;0.50;;;7.90;99.90;;;;;;5016406;28;20045;-87
2023/04/26 12:07:56;;;;;;;2.70;0.40;;;8.10;99.90;;;;;;5016070;28;20498;-86
2023/04/26 12:10:30;;;;;;;3.33;0.40;;;8.00;99.90;;;;;;5016093;28;20633;-84
2023/04/26 12:12:58;;;;;;;2.22;0.50;;;8.00;99.90;;;;;;5016383;28;20581;-84
2023/04/26 12:15:32;;;;;;;2.30;0.40;;;8.00;99.90;;;;;;5016269;28;20046;-84
2023/04/26 12:18:00;;;;;;;3.10;0.50;;;8.10;99.90;;;;;;5015439;28;20045;-85
2023/04/26 12:20:27;;;;;;;4.85;0.50;;;8.30;99.90;;;;;;5016928;28;20136;-84
2023/04/26 12:23:04;;;;;;;1.48;0.60;;;8.30;99.90;;;;;;5016162;28;20050;-84
2023/04/26 12:25:35;;;;;;;2.80;0.63;;;8.40;99.90;;;;;;5016045;28;20050;-82
2023/04/26 12:28:02;;;;;;;2.42;0.40;;;8.50;99.90;;;;;;5017135;28;20087;-84
2023/04/26 12:30:28;;;;;;;3.72;0.75;;;8.70;99.90;;;;;;5016031;28;20129;-81
2023/04/26 12:32:54;;;;;;;4.28;0.85;;;8.50;99.90;;;;;;5014784;28;20053;-82
2023/04/26 12:35:24;;;;;;;2.03;0.50;;;8.60;99.90;;;;;;4998594;28;20509;-83
2023/04/26 12:37:51;;;;;;;6.10;1.58;;;8.70;99.90;;;;;;5015808;28;20056;-80
2023/04/26 12:40:18;;;;;;;6.22;1.27;;;8.80;99.90;;;;;;5015804;28;20050;-81
2023/04/26 12:42:46;;;;;;;3.78;1.17;;;8.80;99.90;;;;;;4998525;28;20467;-84
2023/04/26 12:45:12;;;;;;;5.40;1.10;;;8.70;99.90;;;;;;4998360;28;20042;-79
2023/04/26 12:47:38;;;;;;;3.75;0.80;;;8.90;99.90;;;;;;5014143;28;20050;-79
2023/04/26 12:50:04;;;;;;;2.20;0.65;;;8.90;99.90;;;;;;5015620;28;20068;-80
2023/04/26 12:52:31;;;;;;;2.38;0.90;;;8.90;99.90;;;;;;5016278;28;20053;-80
2023/04/26 12:54:57;;;;;;;2.10;0.80;;;8.90;99.90;;;;;;5015442;28;20050;-79
2023/04/26 12:57:23;;;;;;;5.00;1.15;;;9.30;99.90;;;;;;5016024;28;20041;-81
2023/04/26 12:59:49;;;;;;;1.52;0.60;;;8.80;99.90;;;;;;4998183;28;20605;-79
2023/04/26 13:02:15;;;;;;;2.38;0.80;;;8.80;99.90;;;;;;4981890;28;20096;-81